Cape Point, South Africa
Current Conditions -  °F | °C
As of 6:00 PM on Thursday 29 Jan 2015 (Local Time) from FACT Reporting Station
Clear Clear  
Wind Chill: 84°   Ceiling: Unl
Heat Index: 84°   Visibility: 6mi
Dew Point: 61°   Wind: 9mph
Humidity: 45%   Direction: 320°NW
Pressure: 29.77"   Gusts: NA
Location:  34.35°S, 18.5°E
Report Text: FACT 291600Z 32008KT CAVOK 29/16 Q1008 NOSIG
Loading
Personal Weather Stations






























Interactive Weather Map New forecast layout! Learn more

10-Day Weather Forecast

Advertisements
Track Severe Weather on mobile